Time,TemperatureF,DewpointF,PressureIn,WindDirection,WindDirectionDegrees,WindSpeedMPH,WindSpeedGustMPH,Humidity,HourlyPrecipIn,Conditions,Clouds,dailyrainin,SolarRadiationWatts/m^2,SoftwareType,DateUTC
2013-12-03 00:00:00,25.7,21.8,29.93,NNE,24,0.0,2.0,85,0.00,RA,,0.00,0.0,WeatherDisplay:10.37,2013-12-03 05:00:00,
2013-12-03 00:01:00,25.6,21.7,29.93,NNE,24,2.3,2.3,85,0.00,RA,,0.00,0.0,WeatherDisplay:10.37,2013-12-03 05:01:00,
2013-12-03 00:02:00,25.6,22.0,29.93,NNE,24,2.3,2.3,86,0.00,RA,,0.00,0.0,WeatherDisplay:10.37,2013-12-03 05:02:00,
2013-12-03 00:03:00,25.5,21.9,29.93,NNE,24,2.3,2.3,86,0.00,RA,,0.00,0.0,WeatherDisplay:10.37,2013-12-03 05:03:00,
2013-12-03 00:08:00,25.6,22.5,29.93,NNE,24,2.3,2.3,88,0.00,RA,,0.00,0.0,WeatherDisplay:10.37,2013-12-03 05:08:00,
2013-12-03 00:13:00,25.6,22.8,29.93,NNE,24,2.3,2.3,89,0.00,CLR,,0.00,0.0,WeatherDisplay:10.37,2013-12-03 05:13:00,
2013-12-03 00:18:00,25.6,22.8,29.94,NNE,24,2.3,2.3,89,0.00,CLR,,0.00,0.0,WeatherDisplay:10.37,2013-12-03 05:18:00,
2013-12-03 00:23:00,25.5,22.4,29.93,NNE,24,2.3,2.3,88,0.00,CLR,,0.00,0.0,WeatherDisplay:10.37,2013-12-03 05:23:00,
2013-12-03 00:28:00,25.4,22.3,29.93,NNE,24,2.3,2.3,88,0.00,CLR,,0.00,0.0,WeatherDisplay:10.37,2013-12-03 05:28:00,
2013-12-03 00:33:00,25.2,22.1,29.93,NNE,24,2.3,2.3,88,0.00,CLR,,0.00,0.0,WeatherDisplay:10.37,2013-12-03 05:33:00,
2013-12-03 00:38:00,25.0,21.9,29.93,NNE,24,1.2,1.2,88,0.00,CLR,,0.00,0.0,WeatherDisplay:10.37,2013-12-03 05:38:00,
2013-12-03 00:43:00,24.9,22.1,29.94,NNE,24,1.2,1.2,89,0.00,CLR,,0.00,0.0,WeatherDisplay:10.37,2013-12-03 05:43:00,
2013-12-03 00:48:00,24.8,22.0,29.93,NNE,24,0.0,0.0,89,0.00,CLR,,0.00,0.0,WeatherDisplay:10.37,2013-12-03 05:48:00,
2013-12-03 00:53:00,24.7,21.9,29.93,NNE,24,3.5,3.5,89,0.00,CLR,,0.00,0.0,WeatherDisplay:10.37,2013-12-03 05:53:00,
2013-12-03 00:58:00,24.7,22.2,29.93,NNE,24,2.3,2.3,90,0.00,CLR,,0.00,0.0,WeatherDisplay:10.37,2013-12-03 05:58:00,
2013-12-03 01:03:00,24.7,22.2,29.93,NNE,24,2.3,2.3,90,0.00,CLR,,0.00,0.0,WeatherDisplay:10.37,2013-12-03 06:03:00,
2013-12-03 01:08:00,24.5,22.0,29.93,NNE,24,2.3,2.3,90,0.00,CLR,,0.00,0.0,WeatherDisplay:10.37,2013-12-03 06:08:00,
2013-12-03 01:13:00,24.5,22.0,29.93,NNE,24,2.3,2.3,90,0.00,CLR,,0.00,0.0,WeatherDisplay:10.37,2013-12-03 06:13:00,
2013-12-03 01:18:00,24.3,21.8,29.93,NNE,24,2.3,2.3,90,0.00,CLR,,0.00,0.0,WeatherDisplay:10.37,2013-12-03 06:18:00,
2013-12-03 01:23:00,24.2,21.7,29.93,NNE,24,1.2,0.0,90,0.00,CLR,,0.00,0.0,WeatherDisplay:10.37,2013-12-03 06:23:00,
2013-12-03 01:28:00,24.1,21.6,29.93,NNE,24,1.2,1.2,90,0.00,CLR,,0.00,0.0,WeatherDisplay:10.37,2013-12-03 06:28:00,
2013-12-03 01:33:00,24.0,21.8,29.93,NNE,24,0.0,0.0,91,0.00,CLR,,0.00,0.0,WeatherDisplay:10.37,2013-12-03 06:33:00,
2013-12-03 01:38:00,23.9,21.7,29.93,NNE,24,0.0,0.0,91,0.00,CLR,,0.00,0.0,WeatherDisplay:10.37,2013-12-03 06:38:00,
2013-12-03 01:43:00,23.8,21.3,29.93,NNE,24,0.0,0.0,90,0.00,CLR,,0.00,0.0,WeatherDisplay:10.37,2013-12-03 06:43:00,
2013-12-03 01:48:00,23.6,21.1,29.93,NNE,24,1.2,1.2,90,0.00,CLR,,0.00,0.0,WeatherDisplay:10.37,2013-12-03 06:48:00,
2013-12-03 01:53:00,23.4,21.2,29.93,NNE,24,1.0,1.0,91,0.00,CLR,,0.00,0.0,WeatherDisplay:10.37,2013-12-03 06:53:00,
2013-12-03 01:58:00,23.3,20.8,29.93,NNE,24,2.3,2.3,90,0.00,CLR,,0.00,0.0,WeatherDisplay:10.37,2013-12-03 06:58:00,
2013-12-03 02:03:00,23.0,20.5,29.93,NNE,24,2.3,2.3,90,0.00,CLR,,0.00,0.0,WeatherDisplay:10.37,2013-12-03 07:03:00,
2013-12-03 02:08:00,22.8,20.3,29.93,NNE,24,3.5,3.5,90,0.00,CLR,,0.00,0.0,WeatherDisplay:10.37,2013-12-03 07:08:00,
2013-12-03 02:13:00,22.6,20.1,29.93,NNE,24,3.5,3.5,90,0.00,CLR,,0.00,0.0,WeatherDisplay:10.37,2013-12-03 07:13:00,
2013-12-03 02:18:00,22.4,20.2,29.93,NNE,24,3.5,3.5,91,0.00,CLR,,0.00,0.0,WeatherDisplay:10.37,2013-12-03 07:18:00,
2013-12-03 02:23:00,22.6,20.6,29.93,NNE,25,3.5,3.5,92,0.00,CLR,,0.00,0.0,WeatherDisplay:10.37,2013-12-03 07:23:00,
2013-12-03 02:28:00,23.5,21.8,29.93,NNE,26,4.0,4.0,93,0.00,CLR,,0.00,0.0,WeatherDisplay:10.37,2013-12-03 07:28:00,
2013-12-03 02:33:00,24.2,22.5,29.93,NNE,26,3.5,3.5,93,0.00,CLR,,0.00,0.0,WeatherDisplay:10.37,2013-12-03 07:33:00,
2013-12-03 02:39:00,24.6,22.9,29.93,NNE,26,3.5,3.5,93,0.00,CLR,,0.00,0.0,WeatherDisplay:10.37,2013-12-03 07:39:00,
2013-12-03 02:44:00,25.1,23.4,29.93,NNE,26,3.5,3.5,93,0.00,CLR,,0.00,0.0,WeatherDisplay:10.37,2013-12-03 07:44:00,
2013-12-03 02:49:00,25.4,23.7,29.93,NNE,26,3.5,3.5,93,0.00,CLR,,0.00,0.0,WeatherDisplay:10.37,2013-12-03 07:49:00,
2013-12-03 02:54:00,25.6,23.6,29.93,NNE,26,2.3,2.3,92,0.00,CLR,,0.00,0.0,WeatherDisplay:10.37,2013-12-03 07:54:00,
2013-12-03 02:59:00,25.6,23.6,29.93,NNE,26,2.3,2.3,92,0.00,CLR,,0.00,0.0,WeatherDisplay:10.37,2013-12-03 07:59:00,
2013-12-03 03:04:00,25.6,23.3,29.93,NNE,26,0.0,0.0,91,0.00,CLR,,0.00,0.0,WeatherDisplay:10.37,2013-12-03 08:04:00,
2013-12-03 03:09:00,25.2,22.7,29.93,NNE,26,1.2,1.2,90,0.00,CLR,,0.00,0.0,WeatherDisplay:10.37,2013-12-03 08:09:00,
2013-12-03 03:14:00,24.9,22.1,29.93,NNE,26,2.3,2.3,89,0.00,CLR,,0.00,0.0,WeatherDisplay:10.37,2013-12-03 08:14:00,
2013-12-03 03:19:00,24.5,21.7,29.92,NNE,26,1.2,1.2,89,0.00,CLR,,0.00,0.0,WeatherDisplay:10.37,2013-12-03 08:19:00,
2013-12-03 03:24:00,24.3,21.8,29.92,NNE,26,2.3,2.3,90,0.00,CLR,,0.00,0.0,WeatherDisplay:10.37,2013-12-03 08:24:00,
2013-12-03 03:29:00,24.1,21.6,29.93,NNE,26,1.2,1.2,90,0.00,CLR,,0.00,0.0,WeatherDisplay:10.37,2013-12-03 08:29:00,
2013-12-03 03:34:00,24.2,22.0,29.92,NNE,26,2.3,2.3,91,0.00,CLR,,0.00,0.0,WeatherDisplay:10.37,2013-12-03 08:34:00,
2013-12-03 03:39:00,24.2,22.0,29.92,NNE,26,3.5,3.5,91,0.00,CLR,,0.00,0.0,WeatherDisplay:10.37,2013-12-03 08:39:00,
2013-12-03 03:44:00,24.1,21.9,29.92,NNE,26,3.5,3.5,91,0.00,CLR,,0.00,0.0,WeatherDisplay:10.37,2013-12-03 08:44:00,
2013-12-03 03:49:00,24.1,21.9,29.92,NNE,27,4.0,4.0,91,0.00,CLR,,0.00,0.0,WeatherDisplay:10.37,2013-12-03 08:49:00,
2013-12-03 03:54:00,24.8,23.1,29.92,NNE,30,4.0,4.0,93,0.00,CLR,,0.00,0.0,WeatherDisplay:10.37,2013-12-03 08:54:00,
2013-12-03 03:59:00,25.4,23.4,29.92,NE,39,3.5,3.5,92,0.00,CLR,,0.00,0.0,WeatherDisplay:10.37,2013-12-03 08:59:00,
2013-12-03 04:04:00,25.8,23.8,29.92,NE,39,3.5,3.5,92,0.00,SCT,,0.00,0.0,WeatherDisplay:10.37,2013-12-03 09:04:00,
2013-12-03 04:09:00,26.2,23.9,29.92,NE,39,1.2,1.2,91,0.00,SCT,,0.00,0.0,WeatherDisplay:10.37,2013-12-03 09:09:00,
2013-12-03 04:14:00,26.5,24.2,29.93,NE,39,1.2,1.2,91,0.00,SCT,,0.00,0.0,WeatherDisplay:10.37,2013-12-03 09:14:00,
2013-12-03 04:19:00,26.6,24.1,29.93,NE,39,0.0,0.0,90,0.00,SCT,,0.00,0.0,WeatherDisplay:10.37,2013-12-03 09:19:00,
2013-12-03 04:24:00,26.7,24.2,29.93,NE,39,1.2,1.2,90,0.00,SCT,,0.00,0.0,WeatherDisplay:10.37,2013-12-03 09:24:00,
2013-12-03 04:29:00,26.9,24.4,29.93,NE,39,0.0,0.0,90,0.00,SCT,,0.00,0.0,WeatherDisplay:10.37,2013-12-03 09:29:00,
2013-12-03 04:34:00,26.9,24.4,29.93,NE,39,1.2,1.2,90,0.00,SCT,,0.00,0.0,WeatherDisplay:10.37,2013-12-03 09:34:00,
2013-12-03 04:39:00,27.0,24.5,29.93,NE,39,3.5,3.5,90,0.00,SCT,,0.00,0.0,WeatherDisplay:10.37,2013-12-03 09:39:00,
2013-12-03 04:44:00,27.1,24.6,29.93,NE,39,0.0,0.0,90,0.00,SCT,,0.00,0.0,WeatherDisplay:10.37,2013-12-03 09:44:00,
2013-12-03 04:49:00,27.2,24.7,29.93,NE,39,3.5,3.5,90,0.00,SCT,,0.00,0.0,WeatherDisplay:10.37,2013-12-03 09:49:00,
2013-12-03 04:54:00,27.6,25.1,29.92,NE,39,3.5,3.5,90,0.00,SCT,,0.00,0.0,WeatherDisplay:10.37,2013-12-03 09:54:00,
2013-12-03 04:59:00,27.8,25.0,29.93,NE,39,2.3,2.3,89,0.00,SCT,,0.00,0.0,WeatherDisplay:10.37,2013-12-03 09:59:00,
2013-12-03 05:04:00,28.0,25.2,29.93,NE,39,1.2,1.2,89,0.00,OVC,,0.00,0.0,WeatherDisplay:10.37,2013-12-03 10:04:00,
2013-12-03 05:09:00,28.3,25.2,29.92,NE,51,5.8,5.8,88,0.00,OVC,,0.00,0.0,WeatherDisplay:10.37,2013-12-03 10:09:00,
2013-12-03 05:14:00,28.7,25.3,29.91,ENE,78,4.6,4.6,87,0.00,OVC,,0.00,0.0,WeatherDisplay:10.37,2013-12-03 10:14:00,
2013-12-03 05:19:00,28.9,25.5,29.91,East,91,6.9,6.9,87,0.00,OVC,,0.00,0.0,WeatherDisplay:10.37,2013-12-03 10:19:00,
2013-12-03 05:24:00,29.1,25.4,29.91,East,91,3.5,3.5,86,0.00,OVC,,0.00,0.0,WeatherDisplay:10.37,2013-12-03 10:24:00,
2013-12-03 05:29:00,29.2,25.5,29.91,East,89,6.0,6.0,86,0.00,OVC,,0.00,0.0,WeatherDisplay:10.37,2013-12-03 10:29:00,
2013-12-03 05:34:00,29.3,25.6,29.91,East,90,4.6,4.6,86,0.00,OVC,,0.00,0.0,WeatherDisplay:10.37,2013-12-03 10:34:00,
2013-12-03 05:39:00,29.3,25.6,29.92,East,89,4.6,4.6,86,0.00,OVC,,0.00,0.0,WeatherDisplay:10.37,2013-12-03 10:39:00,
2013-12-03 05:44:00,29.5,25.8,29.92,East,88,6.0,6.0,86,0.00,OVC,,0.00,0.0,WeatherDisplay:10.37,2013-12-03 10:44:00,
2013-12-03 05:49:00,29.7,25.7,29.91,East,88,5.8,5.8,85,0.00,OVC,,0.00,0.0,WeatherDisplay:10.37,2013-12-03 10:49:00,
2013-12-03 05:54:00,29.8,26.1,29.90,East,101,4.6,4.6,86,0.00,OVC,,0.00,0.0,WeatherDisplay:10.37,2013-12-03 10:54:00,
2013-12-03 05:59:00,29.9,25.9,29.90,ESE,107,6.9,6.9,85,0.00,OVC,,0.00,0.0,WeatherDisplay:10.37,2013-12-03 10:59:00,
2013-12-03 06:04:00,30.0,26.0,29.91,East,94,6.9,6.9,85,0.00,OVC,,0.00,0.0,WeatherDisplay:10.37,2013-12-03 11:04:00,
2013-12-03 06:09:00,30.2,26.2,29.90,East,92,6.9,6.9,85,0.00,OVC,,0.00,0.0,WeatherDisplay:10.37,2013-12-03 11:09:00,
2013-12-03 06:14:00,30.4,26.4,29.91,East,88,6.9,6.9,85,0.00,OVC,,0.00,0.0,WeatherDisplay:10.37,2013-12-03 11:14:00,
2013-12-03 06:19:00,30.5,26.5,29.91,East,96,5.8,5.8,85,0.00,OVC,,0.00,0.0,WeatherDisplay:10.37,2013-12-03 11:19:00,
2013-12-03 06:24:00,30.5,26.5,29.92,ESE,110,5.8,5.8,85,0.00,OVC,,0.00,0.0,WeatherDisplay:10.37,2013-12-03 11:24:00,
2013-12-03 06:29:00,30.6,26.6,29.91,East,96,8.1,8.1,85,0.00,OVC,,0.00,0.0,WeatherDisplay:10.37,2013-12-03 11:29:00,
2013-12-03 06:34:00,30.6,26.6,29.92,East,94,5.8,5.8,85,0.00,OVC,,0.00,0.0,WeatherDisplay:10.37,2013-12-03 11:34:00,
2013-12-03 06:44:00,30.7,26.7,29.92,East,86,1.0,1.0,85,0.00,OVC,,0.00,0.0,WeatherDisplay:10.37,2013-12-03 11:44:00,
2013-12-03 06:49:00,30.7,26.7,29.92,East,86,4.6,4.6,85,0.00,OVC,,0.00,0.0,WeatherDisplay:10.37,2013-12-03 11:49:00,
2013-12-03 06:54:00,30.7,26.7,29.92,East,89,4.6,4.6,85,0.00,OVC,,0.00,0.0,WeatherDisplay:10.37,2013-12-03 11:54:00,
2013-12-03 06:59:00,30.7,26.7,29.91,ESE,104,5.0,5.0,85,0.00,OVC,,0.00,0.0,WeatherDisplay:10.37,2013-12-03 11:59:00,
2013-12-03 07:04:00,30.8,26.8,29.91,ESE,103,3.5,3.5,85,0.00,OVC,,0.00,0.0,WeatherDisplay:10.37,2013-12-03 12:04:00,
2013-12-03 07:09:00,30.8,26.8,29.91,East,93,4.6,4.6,85,0.00,OVC,,0.00,0.0,WeatherDisplay:10.37,2013-12-03 12:09:00,
2013-12-03 07:14:00,30.8,26.8,29.92,East,86,4.6,4.6,85,0.00,OVC,,0.00,0.0,WeatherDisplay:10.37,2013-12-03 12:14:00,
2013-12-03 07:19:00,30.9,26.9,29.92,East,86,2.3,2.3,85,0.00,OVC,,0.00,0.0,WeatherDisplay:10.37,2013-12-03 12:19:00,
2013-12-03 07:24:00,30.9,26.9,29.92,East,84,4.6,4.6,85,0.00,OVC,,0.00,0.0,WeatherDisplay:10.37,2013-12-03 12:24:00,
2013-12-03 07:29:00,31.0,27.0,29.92,East,97,4.6,4.6,85,0.00,OVC,,0.00,0.0,WeatherDisplay:10.37,2013-12-03 12:29:00,
2013-12-03 07:35:00,31.1,27.1,29.91,ESE,109,3.5,3.5,85,0.00,OVC,,0.00,0.0,WeatherDisplay:10.37,2013-12-03 12:35:00,
2013-12-03 07:40:00,31.2,27.2,29.91,ESE,109,3.5,3.5,85,0.00,OVC,,0.00,0.0,WeatherDisplay:10.37,2013-12-03 12:40:00,
2013-12-03 07:45:00,31.3,27.3,29.91,ESE,109,7.0,7.0,85,0.00,OVC,,0.00,0.0,WeatherDisplay:10.37,2013-12-03 12:45:00,
2013-12-03 07:50:00,31.4,27.1,29.91,ESE,111,2.3,2.7,84,0.00,OVC,,0.00,0.0,WeatherDisplay:10.37,2013-12-03 12:50:00,
2013-12-03 07:55:00,31.5,27.2,29.92,ESE,117,3.5,3.5,84,0.00,OVC,,0.00,0.0,WeatherDisplay:10.37,2013-12-03 12:55:00,
2013-12-03 08:00:00,31.7,27.1,29.92,East,88,3.5,3.5,83,0.00,OVC,,0.00,0.0,WeatherDisplay:10.37,2013-12-03 13:00:00,
2013-12-03 08:05:00,31.9,27.3,29.92,East,94,4.6,4.6,83,0.00,OVC,,0.00,0.0,WeatherDisplay:10.37,2013-12-03 13:05:00,
2013-12-03 08:10:00,31.9,27.3,29.92,East,86,5.0,5.0,83,0.00,OVC,,0.00,5.0,WeatherDisplay:10.37,2013-12-03 13:10:00,
2013-12-03 08:15:00,32.0,27.1,29.92,East,101,4.6,4.6,82,0.00,OVC,,0.00,9.0,WeatherDisplay:10.37,2013-12-03 13:15:00,
2013-12-03 08:20:00,32.1,27.5,29.91,East,98,6.9,6.9,83,0.00,OVC,,0.00,16.0,WeatherDisplay:10.37,2013-12-03 13:20:00,
2013-12-03 08:25:00,32.2,27.3,29.92,East,88,8.1,8.1,82,0.00,OVC,,0.00,12.0,WeatherDisplay:10.37,2013-12-03 13:25:00,
2013-12-03 08:30:00,32.3,27.1,29.92,East,94,3.0,7.0,81,0.00,OVC,,0.00,11.0,WeatherDisplay:10.37,2013-12-03 13:30:00,
2013-12-03 08:35:00,32.4,27.2,29.92,East,90,3.0,7.0,81,0.00,OVC,,0.00,11.0,WeatherDisplay:10.37,2013-12-03 13:35:00,
2013-12-03 08:40:00,32.5,27.3,29.92,East,96,3.0,8.0,81,0.00,OVC,,0.00,9.0,WeatherDisplay:10.37,2013-12-03 13:40:00,
2013-12-03 08:45:00,32.5,27.3,29.92,East,101,2.0,6.0,81,0.00,OVC,,0.00,12.0,WeatherDisplay:10.37,2013-12-03 13:45:00,
2013-12-03 08:50:00,32.6,27.4,29.92,ESE,108,6.0,8.0,81,0.00,OVC,,0.00,16.0,WeatherDisplay:10.37,2013-12-03 13:50:00,
2013-12-03 08:55:00,32.8,27.3,29.92,ESE,109,8.1,8.1,80,0.00,OVC,,0.00,18.0,WeatherDisplay:10.37,2013-12-03 13:55:00,
2013-12-03 09:00:00,32.9,27.4,29.92,ESE,111,5.8,5.8,80,0.00,OVC,,0.00,16.0,WeatherDisplay:10.37,2013-12-03 14:00:00,
2013-12-03 09:05:00,33.0,27.5,29.92,East,90,8.1,8.1,80,0.00,OVC,,0.00,14.0,WeatherDisplay:10.37,2013-12-03 14:05:00,
2013-12-03 09:10:00,33.0,27.5,29.92,SE,126,9.0,9.0,80,0.00,OVC,,0.00,16.0,WeatherDisplay:10.37,2013-12-03 14:10:00,
2013-12-03 09:15:00,33.1,27.3,29.92,ESE,118,5.8,5.8,79,0.00,OVC,,0.00,16.0,WeatherDisplay:10.37,2013-12-03 14:15:00,
2013-12-03 09:20:00,33.2,27.4,29.92,East,93,5.8,5.8,79,0.00,OVC,,0.00,25.0,WeatherDisplay:10.37,2013-12-03 14:20:00,
2013-12-03 09:25:00,33.2,27.4,29.91,SE,132,6.9,6.9,79,0.00,OVC,,0.00,30.0,WeatherDisplay:10.37,2013-12-03 14:25:00,
2013-12-03 09:30:00,33.3,27.5,29.91,ESE,115,4.6,4.6,79,0.00,OVC,,0.00,28.0,WeatherDisplay:10.37,2013-12-03 14:30:00,
2013-12-03 09:35:00,33.4,27.6,29.91,SE,146,6.9,6.9,79,0.00,OVC,,0.00,35.0,WeatherDisplay:10.37,2013-12-03 14:35:00,
2013-12-03 09:40:00,33.5,27.4,29.91,ESE,117,8.1,8.1,78,0.00,OVC,,0.00,44.0,WeatherDisplay:10.37,2013-12-03 14:40:00,
2013-12-03 09:45:00,33.7,27.6,29.91,ESE,122,6.9,6.9,78,0.00,OVC,,0.00,28.0,WeatherDisplay:10.37,2013-12-03 14:45:00,
2013-12-03 09:50:00,33.7,27.9,29.91,ESE,104,5.8,5.8,79,0.00,OVC,,0.00,26.0,WeatherDisplay:10.37,2013-12-03 14:50:00,
2013-12-03 09:55:00,33.8,28.0,29.91,ESE,108,5.0,5.0,79,0.00,OVC,,0.00,35.0,WeatherDisplay:10.37,2013-12-03 14:55:00,
2013-12-03 10:00:00,33.9,28.1,29.91,East,86,9.2,9.2,79,0.00,OVC,,0.00,39.0,WeatherDisplay:10.37,2013-12-03 15:00:00,
2013-12-03 10:05:00,34.0,28.5,29.91,SE,132,6.9,6.9,80,0.00,OVC,,0.00,40.0,WeatherDisplay:10.37,2013-12-03 15:05:00,
2013-12-03 10:10:00,34.1,28.6,29.92,ESE,123,8.1,8.1,80,0.00,OVC,,0.00,37.0,WeatherDisplay:10.37,2013-12-03 15:10:00,
2013-12-03 10:15:00,34.2,29.0,29.92,East,88,9.2,9.2,81,0.00,OVC,,0.00,40.0,WeatherDisplay:10.37,2013-12-03 15:15:00,
2013-12-03 10:20:00,34.3,29.1,29.92,East,83,8.1,8.1,81,0.00,OVC,,0.00,23.0,WeatherDisplay:10.37,2013-12-03 15:20:00,
2013-12-03 10:25:00,34.3,29.1,29.93,ESE,109,9.2,9.2,81,0.00,OVC,,0.00,12.0,WeatherDisplay:10.37,2013-12-03 15:25:00,
2013-12-03 10:30:00,34.3,29.4,29.93,ESE,119,8.1,8.1,82,0.00,OVC,,0.00,12.0,WeatherDisplay:10.37,2013-12-03 15:30:00,
2013-12-03 10:35:00,34.3,29.4,29.93,ESE,106,7.0,7.0,82,0.00,OVC,,0.00,12.0,WeatherDisplay:10.37,2013-12-03 15:35:00,
2013-12-03 10:40:00,34.3,29.7,29.93,East,98,4.6,4.6,83,0.00,OVC,,0.00,21.0,WeatherDisplay:10.37,2013-12-03 15:40:00,
2013-12-03 10:45:00,34.2,29.9,29.93,ESE,103,3.5,3.5,84,0.00,OVC,,0.00,30.0,WeatherDisplay:10.37,2013-12-03 15:45:00,
2013-12-03 10:50:00,34.2,29.9,29.93,East,98,8.1,8.1,84,0.00,OVC,,0.00,25.0,WeatherDisplay:10.37,2013-12-03 15:50:00,
2013-12-03 10:55:00,34.3,30.0,29.93,East,94,5.8,5.8,84,0.00,OVC,,0.00,25.0,WeatherDisplay:10.37,2013-12-03 15:55:00,
2013-12-03 11:00:00,34.3,30.0,29.93,SE,139,8.1,8.1,84,0.00,OVC,,0.00,32.0,WeatherDisplay:10.37,2013-12-03 16:00:00,
2013-12-03 11:05:00,34.4,30.1,29.93,ESE,122,3.5,3.5,84,0.00,OVC,,0.00,28.0,WeatherDisplay:10.37,2013-12-03 16:05:00,
2013-12-03 11:10:00,34.6,30.3,29.92,ESE,108,8.1,8.1,84,0.00,OVC,,0.00,39.0,WeatherDisplay:10.37,2013-12-03 16:10:00,
2013-12-03 11:15:00,34.7,30.1,29.92,East,100,3.5,3.5,83,0.00,OVC,,0.00,54.0,WeatherDisplay:10.37,2013-12-03 16:15:00,
2013-12-03 11:20:00,34.7,30.1,29.92,ESE,117,6.9,6.9,83,0.00,OVC,,0.00,33.0,WeatherDisplay:10.37,2013-12-03 16:20:00,
2013-12-03 11:25:00,34.8,30.2,29.92,SE,139,6.9,6.9,83,0.00,OVC,,0.00,28.0,WeatherDisplay:10.37,2013-12-03 16:25:00,
2013-12-03 11:30:00,34.9,30.6,29.92,SE,128,6.9,6.9,84,0.00,OVC,,0.00,30.0,WeatherDisplay:10.37,2013-12-03 16:30:00,
2013-12-03 11:35:00,34.9,30.3,29.92,ESE,112,8.1,8.1,83,0.00,OVC,,0.00,33.0,WeatherDisplay:10.37,2013-12-03 16:35:00,
2013-12-03 11:40:00,34.9,30.3,29.92,ESE,102,4.6,4.6,83,0.00,OVC,,0.00,49.0,WeatherDisplay:10.37,2013-12-03 16:40:00,
2013-12-03 11:45:00,35.0,30.4,29.92,ESE,109,5.8,5.8,83,0.00,OVC,,0.00,42.0,WeatherDisplay:10.37,2013-12-03 16:45:00,
2013-12-03 11:50:00,35.0,30.7,29.91,SE,126,11.5,11.5,84,0.00,OVC,,0.00,67.0,WeatherDisplay:10.37,2013-12-03 16:50:00,
2013-12-03 11:55:00,35.0,30.9,29.91,East,86,6.9,6.9,85,0.00,OVC,,0.00,86.0,WeatherDisplay:10.37,2013-12-03 16:55:00,
2013-12-03 12:00:00,35.0,30.7,29.91,ESE,109,4.6,4.6,84,0.00,OVC,,0.00,65.0,WeatherDisplay:10.37,2013-12-03 17:00:00,
2013-12-03 12:05:00,35.1,31.0,29.91,ESE,118,3.5,3.5,85,0.00,OVC,,0.00,62.0,WeatherDisplay:10.37,2013-12-03 17:05:00,
2013-12-03 12:10:00,35.2,30.9,29.91,ESE,107,3.5,3.5,84,0.00,OVC,,0.00,56.0,WeatherDisplay:10.37,2013-12-03 17:10:00,
2013-12-03 12:15:00,35.2,30.9,29.91,SE,146,9.2,9.2,84,0.00,OVC,,0.00,53.0,WeatherDisplay:10.37,2013-12-03 17:15:00,
2013-12-03 12:20:00,35.3,30.9,29.91,ESE,117,4.6,4.6,84,0.00,OVC,,0.00,53.0,WeatherDisplay:10.37,2013-12-03 17:20:00,
2013-12-03 12:25:00,35.3,30.9,29.91,SE,131,6.0,6.0,84,0.00,OVC,,0.00,46.0,WeatherDisplay:10.37,2013-12-03 17:25:00,
2013-12-03 12:30:00,35.3,30.9,29.91,SSE,155,11.5,11.5,84,0.00,OVC,,0.00,37.0,WeatherDisplay:10.37,2013-12-03 17:30:00,
2013-12-03 12:35:00,35.3,30.9,29.90,ESE,123,7.0,7.0,84,0.00,OVC,,0.00,40.0,WeatherDisplay:10.37,2013-12-03 17:35:00,
2013-12-03 12:40:00,35.3,31.2,29.90,ESE,117,8.1,8.1,85,0.00,OVC,,0.00,37.0,WeatherDisplay:10.37,2013-12-03 17:40:00,
2013-12-03 12:45:00,35.3,31.2,29.90,SE,132,3.5,3.5,85,0.00,OVC,,0.00,40.0,WeatherDisplay:10.37,2013-12-03 17:45:00,
2013-12-03 12:50:00,35.3,31.2,29.90,SSE,150,4.6,4.6,85,0.00,OVC,,0.00,62.0,WeatherDisplay:10.37,2013-12-03 17:50:00,
2013-12-03 12:55:00,35.5,31.4,29.90,ESE,118,4.6,4.6,85,0.00,OVC,,0.00,62.0,WeatherDisplay:10.37,2013-12-03 17:55:00,
2013-12-03 13:00:00,35.6,31.5,29.90,ESE,121,3.5,3.5,85,0.00,OVC,,0.00,63.0,WeatherDisplay:10.37,2013-12-03 18:00:00,
2013-12-03 13:05:00,35.7,31.6,29.90,ESE,118,5.8,5.8,85,0.00,OVC,,0.00,74.0,WeatherDisplay:10.37,2013-12-03 18:05:00,
2013-12-03 13:11:00,35.9,31.8,29.90,ESE,105,3.5,3.5,85,0.00,OVC,,0.00,79.0,WeatherDisplay:10.37,2013-12-03 18:11:00,
2013-12-03 13:16:00,36.1,32.0,29.89,ESE,123,3.5,3.5,85,0.00,OVC,,0.00,79.0,WeatherDisplay:10.37,2013-12-03 18:16:00,
2013-12-03 13:21:00,36.2,32.1,29.89,SE,134,5.0,5.0,85,0.00,OVC,,0.00,67.0,WeatherDisplay:10.37,2013-12-03 18:21:00,
2013-12-03 13:26:00,36.2,32.4,29.89,SE,129,5.0,5.0,86,0.00,OVC,,0.00,90.0,WeatherDisplay:10.37,2013-12-03 18:26:00,
2013-12-03 13:31:00,36.3,32.5,29.89,East,98,6.9,6.9,86,0.00,OVC,,0.00,90.0,WeatherDisplay:10.37,2013-12-03 18:31:00,
2013-12-03 13:36:00,36.4,32.6,29.88,ESE,121,5.8,5.8,86,0.00,OVC,,0.00,42.0,WeatherDisplay:10.37,2013-12-03 18:36:00,
2013-12-03 13:41:00,36.3,32.5,29.88,ESE,115,10.0,10.0,86,0.00,OVC,,0.00,30.0,WeatherDisplay:10.37,2013-12-03 18:41:00,
2013-12-03 13:46:00,36.2,32.7,29.88,East,90,10.0,10.0,87,0.01,RA,,0.01,40.0,WeatherDisplay:10.37,2013-12-03 18:46:00,
2013-12-03 13:51:00,36.1,32.9,29.88,East,94,7.0,7.0,88,0.01,RA,,0.01,26.0,WeatherDisplay:10.37,2013-12-03 18:51:00,
2013-12-03 13:56:00,36.0,32.8,29.88,South,169,4.6,4.6,88,0.01,SCT,,0.01,11.0,WeatherDisplay:10.37,2013-12-03 18:56:00,
2013-12-03 14:01:00,35.9,33.0,29.88,SE,128,3.5,3.5,89,0.01,FEW,,0.01,7.0,WeatherDisplay:10.37,2013-12-03 19:01:00,
2013-12-03 14:06:00,35.8,32.9,29.88,ESE,105,6.9,6.9,89,0.01,-RA,,0.01,11.0,WeatherDisplay:10.37,2013-12-03 19:06:00,
2013-12-03 14:11:00,35.7,32.8,29.87,SE,140,6.0,6.0,89,0.01,-RA,,0.01,19.0,WeatherDisplay:10.37,2013-12-03 19:11:00,
2013-12-03 14:16:00,35.7,33.1,29.87,ESE,104,8.1,8.1,90,0.01,-RA,,0.01,21.0,WeatherDisplay:10.37,2013-12-03 19:16:00,
2013-12-03 14:21:00,35.7,33.1,29.87,ESE,122,6.9,6.9,90,0.01,-RA,,0.01,19.0,WeatherDisplay:10.37,2013-12-03 19:21:00,
2013-12-03 14:26:00,35.7,33.1,29.87,East,100,6.9,6.9,90,0.02,-RA,,0.02,18.0,WeatherDisplay:10.37,2013-12-03 19:26:00,
2013-12-03 14:31:00,35.7,33.3,29.87,SE,126,3.5,3.5,91,0.02,-RA,,0.02,14.0,WeatherDisplay:10.37,2013-12-03 19:31:00,
2013-12-03 14:36:00,35.7,33.3,29.86,ESE,108,9.2,9.2,91,0.02,-RA,,0.02,14.0,WeatherDisplay:10.37,2013-12-03 19:36:00,
2013-12-03 14:41:00,35.7,33.3,29.86,SE,134,6.0,6.0,91,0.02,-RA,,0.02,12.0,WeatherDisplay:10.37,2013-12-03 19:41:00,
2013-12-03 14:46:00,35.8,33.4,29.86,East,100,5.8,5.8,91,0.01,-RA,,0.02,18.0,WeatherDisplay:10.37,2013-12-03 19:46:00,
2013-12-03 14:51:00,35.8,33.4,29.86,East,96,3.5,3.5,91,0.01,-RA,,0.02,18.0,WeatherDisplay:10.37,2013-12-03 19:51:00,
2013-12-03 14:56:00,35.8,33.4,29.86,ESE,103,3.5,3.5,91,0.01,-RA,,0.02,21.0,WeatherDisplay:10.37,2013-12-03 19:56:00,
2013-12-03 15:01:00,35.9,33.5,29.86,ESE,114,3.5,3.5,91,0.01,-RA,,0.02,21.0,WeatherDisplay:10.37,2013-12-03 20:01:00,
2013-12-03 15:06:00,35.9,33.5,29.86,ESE,122,5.8,5.8,91,0.01,-RA,,0.02,18.0,WeatherDisplay:10.37,2013-12-03 20:06:00,
2013-12-03 15:11:00,35.9,33.8,29.86,ESE,119,6.9,6.9,92,0.01,-RA,,0.02,37.0,WeatherDisplay:10.37,2013-12-03 20:11:00,
2013-12-03 15:16:00,36.0,33.9,29.86,ESE,115,3.5,3.5,92,0.01,-RA,,0.02,21.0,WeatherDisplay:10.37,2013-12-03 20:16:00,
2013-12-03 15:21:00,36.0,33.6,29.86,ESE,121,6.9,6.9,91,0.01,-RA,,0.02,14.0,WeatherDisplay:10.37,2013-12-03 20:21:00,
2013-12-03 15:26:00,36.1,33.7,29.86,SE,126,5.8,5.8,91,0.01,-RA,,0.02,14.0,WeatherDisplay:10.37,2013-12-03 20:26:00,
2013-12-03 15:31:00,36.0,33.6,29.86,ESE,115,3.5,3.5,91,0.00,-RA,,0.02,11.0,WeatherDisplay:10.37,2013-12-03 20:31:00,
2013-12-03 15:36:00,36.0,33.6,29.87,ESE,120,3.5,3.5,91,0.00,-RA,,0.02,7.0,WeatherDisplay:10.37,2013-12-03 20:36:00,
2013-12-03 15:41:00,36.0,33.6,29.87,ESE,117,3.5,3.5,91,0.00,-RA,,0.02,14.0,WeatherDisplay:10.37,2013-12-03 20:41:00,
2013-12-03 15:46:00,36.1,33.7,29.87,SE,137,4.0,4.0,91,0.00,-RA,,0.02,12.0,WeatherDisplay:10.37,2013-12-03 20:46:00,
2013-12-03 15:51:00,36.1,34.0,29.87,ESE,114,1.2,1.2,92,0.00,-RA,,0.02,16.0,WeatherDisplay:10.37,2013-12-03 20:51:00,
2013-12-03 15:56:00,36.1,34.0,29.87,SE,138,8.1,8.1,92,0.00,-RA,,0.02,12.0,WeatherDisplay:10.37,2013-12-03 20:56:00,
2013-12-03 16:01:00,36.1,34.0,29.88,SE,131,2.3,2.3,92,0.00,OVC,,0.02,9.0,WeatherDisplay:10.37,2013-12-03 21:01:00,
2013-12-03 16:06:00,36.2,34.1,29.88,SE,143,4.0,4.0,92,0.00,OVC,,0.02,11.0,WeatherDisplay:10.37,2013-12-03 21:06:00,
2013-12-03 16:11:00,36.2,34.1,29.88,ESE,117,3.5,3.5,92,0.00,OVC,,0.02,9.0,WeatherDisplay:10.37,2013-12-03 21:11:00,
2013-12-03 16:16:00,36.2,34.1,29.88,SE,138,4.6,4.6,92,0.00,OVC,,0.02,7.0,WeatherDisplay:10.37,2013-12-03 21:16:00,
2013-12-03 16:21:00,36.3,34.2,29.88,ESE,121,5.0,5.0,92,0.00,OVC,,0.02,5.0,WeatherDisplay:10.37,2013-12-03 21:21:00,
2013-12-03 16:26:00,36.3,34.2,29.88,ESE,107,3.5,3.5,92,0.00,OVC,,0.02,5.0,WeatherDisplay:10.37,2013-12-03 21:26:00,
2013-12-03 16:31:00,36.3,34.2,29.88,ESE,116,3.5,3.5,92,0.00,OVC,,0.02,0.0,WeatherDisplay:10.37,2013-12-03 21:31:00,
2013-12-03 16:36:00,36.3,34.2,29.88,ESE,117,4.6,4.6,92,0.00,OVC,,0.02,0.0,WeatherDisplay:10.37,2013-12-03 21:36:00,
2013-12-03 16:41:00,36.3,34.2,29.88,ESE,112,3.0,3.0,92,0.00,OVC,,0.02,0.0,WeatherDisplay:10.37,2013-12-03 21:41:00,
2013-12-03 16:46:00,36.3,34.2,29.88,ESE,114,5.8,5.8,92,0.00,OVC,,0.02,0.0,WeatherDisplay:10.37,2013-12-03 21:46:00,
2013-12-03 16:51:00,36.3,34.2,29.88,ESE,114,3.5,3.5,92,0.00,OVC,,0.02,0.0,WeatherDisplay:10.37,2013-12-03 21:51:00,
2013-12-03 16:56:00,36.3,34.5,29.88,ESE,120,2.3,2.3,93,0.00,OVC,,0.02,0.0,WeatherDisplay:10.37,2013-12-03 21:56:00,
2013-12-03 17:01:00,36.3,34.5,29.88,ESE,103,3.5,3.5,93,0.00,OVC,,0.02,0.0,WeatherDisplay:10.37,2013-12-03 22:01:00,
2013-12-03 17:06:00,36.2,34.4,29.88,ESE,103,3.5,3.5,93,0.01,RA,,0.03,0.0,WeatherDisplay:10.37,2013-12-03 22:06:00,
2013-12-03 17:11:00,36.2,34.4,29.88,East,98,4.6,4.6,93,0.01,RA,,0.03,0.0,WeatherDisplay:10.37,2013-12-03 22:11:00,
2013-12-03 17:16:00,36.2,34.4,29.88,East,98,4.6,4.6,93,0.01,OVC,,0.03,0.0,WeatherDisplay:10.37,2013-12-03 22:16:00,
2013-12-03 17:21:00,36.2,34.4,29.88,East,99,3.5,3.5,93,0.01,OVC,,0.03,0.0,WeatherDisplay:10.37,2013-12-03 22:21:00,
2013-12-03 17:26:00,36.2,34.4,29.88,East,91,4.6,4.6,93,0.01,OVC,,0.03,0.0,WeatherDisplay:10.37,2013-12-03 22:26:00,
2013-12-03 17:31:00,36.2,34.4,29.88,East,94,2.3,2.3,93,0.01,OVC,,0.03,0.0,WeatherDisplay:10.37,2013-12-03 22:31:00,
2013-12-03 17:36:00,36.1,34.5,29.88,East,94,2.3,2.3,94,0.01,OVC,,0.03,0.0,WeatherDisplay:10.37,2013-12-03 22:36:00,
2013-12-03 17:41:00,36.1,34.5,29.88,ESE,102,4.6,4.6,94,0.01,OVC,,0.03,0.0,WeatherDisplay:10.37,2013-12-03 22:41:00,
2013-12-03 17:46:00,36.1,34.5,29.88,SE,124,2.3,2.3,94,0.02,RA,,0.04,0.0,WeatherDisplay:10.37,2013-12-03 22:46:00,
2013-12-03 17:51:00,36.1,34.5,29.88,ESE,121,3.5,3.5,94,0.02,RA,,0.04,0.0,WeatherDisplay:10.37,2013-12-03 22:51:00,
2013-12-03 17:56:00,36.2,34.6,29.87,ESE,120,3.5,3.5,94,0.02,OVC,,0.04,0.0,WeatherDisplay:10.37,2013-12-03 22:56:00,
2013-12-03 18:01:00,36.2,34.6,29.87,ESE,109,4.6,4.6,94,0.02,-RA,,0.04,0.0,WeatherDisplay:10.37,2013-12-03 23:01:00,
2013-12-03 18:06:00,36.2,34.6,29.87,SSE,148,3.5,3.5,94,0.01,-RA,,0.04,0.0,WeatherDisplay:10.37,2013-12-03 23:06:00,
2013-12-03 18:11:00,36.2,34.6,29.87,ESE,108,3.5,3.5,94,0.01,-RA,,0.04,0.0,WeatherDisplay:10.37,2013-12-03 23:11:00,
2013-12-03 18:16:00,36.2,34.6,29.87,SE,126,3.5,3.5,94,0.01,-RA,,0.04,0.0,WeatherDisplay:10.37,2013-12-03 23:16:00,
2013-12-03 18:21:00,36.2,34.6,29.87,ESE,117,3.5,3.5,94,0.01,-RA,,0.04,0.0,WeatherDisplay:10.37,2013-12-03 23:21:00,
2013-12-03 18:26:00,36.2,34.6,29.87,SE,126,8.1,8.1,94,0.01,-RA,,0.04,0.0,WeatherDisplay:10.37,2013-12-03 23:26:00,
2013-12-03 18:31:00,36.2,34.6,29.87,ESE,115,8.1,8.1,94,0.01,-RA,,0.04,0.0,WeatherDisplay:10.37,2013-12-03 23:31:00,
2013-12-03 18:36:00,36.2,34.6,29.86,ESE,117,9.2,9.2,94,0.01,-RA,,0.04,0.0,WeatherDisplay:10.37,2013-12-03 23:36:00,
2013-12-03 18:41:00,36.3,34.7,29.86,East,100,7.0,7.0,94,0.01,-RA,,0.04,0.0,WeatherDisplay:10.37,2013-12-03 23:41:00,
2013-12-03 18:46:00,36.3,34.7,29.86,ENE,78,6.9,6.9,94,0.00,OVC,,0.04,0.0,WeatherDisplay:10.37,2013-12-03 23:46:00,
2013-12-03 18:51:00,36.3,34.7,29.87,SE,133,4.6,4.6,94,0.00,OVC,,0.04,0.0,WeatherDisplay:10.37,2013-12-03 23:51:00,
2013-12-03 18:56:00,36.3,34.7,29.87,SE,129,4.6,4.6,94,0.00,OVC,,0.04,0.0,WeatherDisplay:10.37,2013-12-03 23:56:00,
2013-12-03 19:01:00,36.3,34.7,29.87,SE,132,4.6,4.6,94,0.00,OVC,,0.04,0.0,WeatherDisplay:10.37,2013-12-04 00:01:00,
2013-12-03 19:06:00,36.3,34.7,29.87,SE,142,5.8,5.8,94,0.00,OVC,,0.04,0.0,WeatherDisplay:10.37,2013-12-04 00:06:00,
2013-12-03 19:11:00,36.4,34.8,29.86,SE,131,6.9,6.9,94,0.00,OVC,,0.04,0.0,WeatherDisplay:10.37,2013-12-04 00:11:00,
2013-12-03 19:16:00,36.4,34.8,29.86,ESE,117,8.0,8.0,94,0.00,OVC,,0.04,0.0,WeatherDisplay:10.37,2013-12-04 00:16:00,
2013-12-03 19:21:00,36.4,34.8,29.86,ESE,117,7.0,7.0,94,0.00,OVC,,0.04,0.0,WeatherDisplay:10.37,2013-12-04 00:21:00,
2013-12-03 19:26:00,36.4,34.8,29.86,ESE,109,4.6,4.6,94,0.00,OVC,,0.04,0.0,WeatherDisplay:10.37,2013-12-04 00:26:00,
2013-12-03 19:31:00,36.4,34.8,29.87,SSE,147,4.0,4.0,94,0.00,OVC,,0.04,0.0,WeatherDisplay:10.37,2013-12-04 00:31:00,
2013-12-03 19:36:00,36.5,34.9,29.87,SSE,159,10.4,10.4,94,0.00,OVC,,0.04,0.0,WeatherDisplay:10.37,2013-12-04 00:36:00,
2013-12-03 19:41:00,36.5,34.9,29.88,SSE,157,3.5,3.5,94,0.00,OVC,,0.04,0.0,WeatherDisplay:10.37,2013-12-04 00:41:00,
2013-12-03 19:46:00,36.5,34.9,29.88,SSE,166,5.0,5.0,94,0.00,OVC,,0.04,0.0,WeatherDisplay:10.37,2013-12-04 00:46:00,
2013-12-03 19:51:00,36.5,34.9,29.87,ESE,123,3.5,3.5,94,0.00,OVC,,0.04,0.0,WeatherDisplay:10.37,2013-12-04 00:51:00,
2013-12-03 19:56:00,36.6,35.0,29.87,East,99,4.0,4.0,94,0.00,OVC,,0.04,0.0,WeatherDisplay:10.37,2013-12-04 00:56:00,
2013-12-03 20:01:00,36.6,35.0,29.87,SSE,153,7.0,7.0,94,0.00,OVC,,0.04,0.0,WeatherDisplay:10.37,2013-12-04 01:01:00,
2013-12-03 20:06:00,36.6,35.0,29.87,SE,124,4.6,4.6,94,0.00,OVC,,0.04,0.0,WeatherDisplay:10.37,2013-12-04 01:06:00,
2013-12-03 20:11:00,36.6,35.0,29.87,ESE,112,5.0,5.0,94,0.00,OVC,,0.04,0.0,WeatherDisplay:10.37,2013-12-04 01:11:00,
2013-12-03 20:16:00,36.7,35.1,29.87,SSE,158,6.0,6.0,94,0.00,OVC,,0.04,0.0,WeatherDisplay:10.37,2013-12-04 01:16:00,
2013-12-03 20:21:00,36.7,35.1,29.87,ESE,104,3.5,3.5,94,0.00,OVC,,0.04,0.0,WeatherDisplay:10.37,2013-12-04 01:21:00,
2013-12-03 20:26:00,36.7,35.1,29.87,SE,127,3.5,3.5,94,0.00,OVC,,0.04,0.0,WeatherDisplay:10.37,2013-12-04 01:26:00,
2013-12-03 20:31:00,36.7,35.1,29.87,SE,131,4.6,4.6,94,0.00,OVC,,0.04,0.0,WeatherDisplay:10.37,2013-12-04 01:31:00,
2013-12-03 20:36:00,36.8,35.2,29.87,SE,140,6.9,6.9,94,0.00,OVC,,0.04,0.0,WeatherDisplay:10.37,2013-12-04 01:36:00,
2013-12-03 20:41:00,36.8,35.2,29.87,SE,127,5.8,5.8,94,0.00,OVC,,0.04,0.0,WeatherDisplay:10.37,2013-12-04 01:41:00,
2013-12-03 20:46:00,36.8,35.2,29.86,ESE,122,5.0,5.0,94,0.00,OVC,,0.04,0.0,WeatherDisplay:10.37,2013-12-04 01:46:00,
2013-12-03 20:51:00,36.8,35.2,29.86,SE,136,5.0,5.0,94,0.00,OVC,,0.04,0.0,WeatherDisplay:10.37,2013-12-04 01:51:00,
2013-12-03 20:56:00,36.7,35.1,29.86,SSE,161,3.0,3.0,94,0.00,OVC,,0.04,0.0,WeatherDisplay:10.37,2013-12-04 01:56:00,
2013-12-03 21:01:00,36.8,35.2,29.86,SE,142,5.0,5.0,94,0.00,OVC,,0.04,0.0,WeatherDisplay:10.37,2013-12-04 02:01:00,
2013-12-03 21:06:00,36.8,35.2,29.86,ESE,123,4.6,4.6,94,0.00,OVC,,0.04,0.0,WeatherDisplay:10.37,2013-12-04 02:06:00,
2013-12-03 21:11:00,36.7,35.1,29.87,ESE,119,3.5,3.5,94,0.00,OVC,,0.04,0.0,WeatherDisplay:10.37,2013-12-04 02:11:00,
2013-12-03 21:16:00,36.7,35.1,29.86,ESE,115,3.5,3.5,94,0.00,OVC,,0.04,0.0,WeatherDisplay:10.37,2013-12-04 02:16:00,
2013-12-03 21:21:00,36.7,35.1,29.86,ESE,123,6.9,6.9,94,0.00,OVC,,0.04,0.0,WeatherDisplay:10.37,2013-12-04 02:21:00,
2013-12-03 21:26:00,36.7,35.1,29.86,ESE,121,4.6,4.6,94,0.00,OVC,,0.04,0.0,WeatherDisplay:10.37,2013-12-04 02:26:00,
2013-12-03 21:31:00,36.7,35.1,29.86,SE,131,5.0,5.0,94,0.00,OVC,,0.04,0.0,WeatherDisplay:10.37,2013-12-04 02:31:00,
2013-12-03 21:36:00,36.6,35.0,29.85,ESE,104,7.0,7.0,94,0.00,OVC,,0.04,0.0,WeatherDisplay:10.37,2013-12-04 02:36:00,
2013-12-03 21:41:00,36.6,35.0,29.86,East,99,8.1,8.1,94,0.00,OVC,,0.04,0.0,WeatherDisplay:10.37,2013-12-04 02:41:00,
2013-12-03 21:46:00,36.7,35.1,29.86,ESE,122,4.6,4.6,94,0.00,OVC,,0.04,0.0,WeatherDisplay:10.37,2013-12-04 02:46:00,
2013-12-03 21:51:00,36.7,35.1,29.86,SE,138,4.6,4.6,94,0.00,OVC,,0.04,0.0,WeatherDisplay:10.37,2013-12-04 02:51:00,
2013-12-03 21:56:00,36.8,35.2,29.86,ESE,121,9.2,9.2,94,0.00,OVC,,0.04,0.0,WeatherDisplay:10.37,2013-12-04 02:56:00,
2013-12-03 22:01:00,36.8,35.2,29.86,ESE,117,3.5,3.5,94,0.00,OVC,,0.04,0.0,WeatherDisplay:10.37,2013-12-04 03:01:00,
2013-12-03 22:06:00,36.8,35.2,29.86,SE,141,4.6,4.6,94,0.00,OVC,,0.04,0.0,WeatherDisplay:10.37,2013-12-04 03:06:00,
2013-12-03 22:11:00,36.9,35.3,29.86,SE,131,5.8,5.8,94,0.00,OVC,,0.04,0.0,WeatherDisplay:10.37,2013-12-04 03:11:00,
2013-12-03 22:16:00,36.9,35.3,29.85,ESE,117,5.0,5.0,94,0.00,OVC,,0.04,0.0,WeatherDisplay:10.37,2013-12-04 03:16:00,
2013-12-03 22:21:00,36.9,35.3,29.86,SE,127,6.9,6.9,94,0.00,OVC,,0.04,0.0,WeatherDisplay:10.37,2013-12-04 03:21:00,
2013-12-03 22:26:00,37.0,35.4,29.85,East,101,5.0,5.0,94,0.00,OVC,,0.04,0.0,WeatherDisplay:10.37,2013-12-04 03:26:00,
2013-12-03 22:31:00,37.0,35.4,29.85,SE,142,4.0,4.0,94,0.00,OVC,,0.04,0.0,WeatherDisplay:10.37,2013-12-04 03:31:00,
2013-12-03 22:36:00,37.1,35.5,29.85,ESE,123,8.1,8.1,94,0.00,OVC,,0.04,0.0,WeatherDisplay:10.37,2013-12-04 03:36:00,
2013-12-03 22:41:00,37.2,35.6,29.85,SE,143,4.6,4.7,94,0.00,OVC,,0.04,0.0,WeatherDisplay:10.37,2013-12-04 03:41:00,
2013-12-03 22:46:00,37.3,35.7,29.85,ESE,120,3.5,3.5,94,0.00,OVC,,0.04,0.0,WeatherDisplay:10.37,2013-12-04 03:46:00,
2013-12-03 22:51:00,37.4,35.8,29.85,SE,130,6.9,6.9,94,0.00,OVC,,0.04,0.0,WeatherDisplay:10.37,2013-12-04 03:51:00,
2013-12-03 22:56:00,37.5,35.9,29.85,ESE,105,5.0,5.0,94,0.00,OVC,,0.04,0.0,WeatherDisplay:10.37,2013-12-04 03:56:00,
2013-12-03 23:01:00,37.6,36.0,29.85,ESE,116,3.5,3.5,94,0.00,OVC,,0.04,0.0,WeatherDisplay:10.37,2013-12-04 04:01:00,
2013-12-03 23:06:00,37.7,36.1,29.85,SE,129,5.0,5.0,94,0.00,OVC,,0.04,0.0,WeatherDisplay:10.37,2013-12-04 04:06:00,
2013-12-03 23:11:00,37.7,36.1,29.85,ESE,109,7.0,7.0,94,0.00,OVC,,0.04,0.0,WeatherDisplay:10.37,2013-12-04 04:11:00,
2013-12-03 23:16:00,37.8,36.2,29.85,SE,130,4.6,4.6,94,0.00,OVC,,0.04,0.0,WeatherDisplay:10.37,2013-12-04 04:16:00,
2013-12-03 23:21:00,37.9,36.3,29.86,SSE,150,4.6,4.6,94,0.00,OVC,,0.04,0.0,WeatherDisplay:10.37,2013-12-04 04:21:00,
2013-12-03 23:26:00,37.9,36.3,29.87,SSE,161,4.6,4.6,94,0.00,OVC,,0.04,0.0,WeatherDisplay:10.37,2013-12-04 04:26:00,
2013-12-03 23:31:00,37.9,36.3,29.87,SSE,159,3.5,3.5,94,0.00,OVC,,0.04,0.0,WeatherDisplay:10.37,2013-12-04 04:31:00,
2013-12-03 23:36:00,38.0,36.4,29.87,SSE,168,2.3,2.3,94,0.00,OVC,,0.05,0.0,WeatherDisplay:10.37,2013-12-04 04:36:00,
2013-12-03 23:41:00,38.0,36.4,29.87,SSE,166,3.5,3.5,94,0.01,RA,,0.05,0.0,WeatherDisplay:10.37,2013-12-04 04:41:00,
2013-12-03 23:46:00,38.0,36.4,29.87,SE,143,3.5,3.5,94,0.01,-RA,,0.05,0.0,WeatherDisplay:10.37,2013-12-04 04:46:00,
2013-12-03 23:51:00,38.0,36.4,29.88,SSE,153,2.3,2.3,94,0.01,-RA,,0.05,0.0,WeatherDisplay:10.37,2013-12-04 04:51:00,
2013-12-03 23:56:00,38.1,36.5,29.88,SSE,153,1.2,1.2,94,0.01,-RA,,0.05,0.0,WeatherDisplay:10.37,2013-12-04 04:56:00,